Aérodrome :
LOGIN :

S'inscrire | Disclaimer

   EN    FR    IT 

 










Légende :    VFR   VFR Marginal   IFR   IFR Intensif   IFR Très Intensif
Visi : 
Plafond : 
>= 8 km
>= 3000ft
5 à 8 km
1000 à 3000 ft
1500m à 5 km
500 à 1000 ft
800 à 1500m
200 à 500 ft
< 800m
< 200 ft
Symboles :   Orages  Brouillard  Fortes neiges  Fortes précipitations  Vent > 20 kt
SIGMETs :   Divers  Orages  Givrage  Turbulence  Onde Orograph.  Cendres Volcan.






- Altitude de l'aérodrome : 117 ft
- Code IATA : NWI


EGSH - Norwich

DERNIER METAR :
  • 231120Z 22011KT 9999 FEW018 SCT023 BKN030 15/11 Q1006 NOSIG

METARs EXPIRÉS :
  • 231050Z 22012KT 9999 FEW022 SCT030 BKN037 15/12 Q1006 NOSIG
  • 231020Z 23012KT 9999 SCT015 BKN025 14/11 Q1006 NOSIG
  • 230950Z 22010KT 180V250 9999 SCT015 SCT017 BKN025 14/12 Q1006
  • 230920Z 22012KT 9999 SCT009 SCT012 BKN016 14/12 Q1006 NOSIG
  • 230850Z 20012KT 170V230 9999 SCT010 BKN012 14/12 Q1006 TEMPO BKN012

TAF TAF EGSH
Valide du 23 à 12h jusqu'au 23 à 21h UTC


231101Z 2312/2321 23009KT 9999 SCT020
PROB30
TEMPO 2315/2318 9000 -SHRA
ATIS : +44 1603 420 640



MET'MAP, la Météo Aéronautique d'un coup d'oeil ! - Copyright ORBIFLY Décembre 2007 - Disclaimer

ORBIFLY MET'MAP TEAM :

Programmation & Développement : Alexandra Zaïnal
Sur une idée originale de : Baudouin d'Aumeries
Assistance à la programmation : Marc-Olivier Méhu
Soutien technique & logistique : Manuel Goepfert

Contact : metmap@orbifly.com




SOURCES & CREDITS :

   NOAA